Flight Track Log - Related Links

Times and Time Zones

All times are in EDT time to prevent confusion due to time zone crossing. See the N46265 flight status page for this flight to view local times or setup timezone preferences in your user account.

Time Position Orientation Groundspeed Altitude Reporting Facility
EDT Latitude Longitude Course Direction KTS MPH feet Rate Location/Type
Sun 10:55:05 AM 28.7833 -81.8167 228° Southwest 88 101 5,600  Level Orlando TRACON
Sun 10:56:05 AM 28.7667 -81.8333 221° Southwest 92 106 5,600  Level Orlando TRACON
Sun 10:57:05 AM 28.7500 -81.8500 221° Southwest 92 106 5,600  Level Orlando TRACON
Sun 10:58:05 AM 28.7333 -81.8833 240° Southwest 93 107 5,600 52 Level Orlando TRACON
Sun 10:59:00 AM 28.7000 -81.8833 180° South 90 104 5,700 109 Climbing Orlando TRACON
Sun 11:00:00 AM 28.6227 -81.7644 228° Southwest  Level Estimated
Sun 11:01:00 AM 28.6715 -81.9091 218° Southwest  Level Estimated
Sun 11:08:00 AM 28.5220 -82.0441 218° Southwest  Level Estimated
Sun 11:09:00 AM 28.5006 -82.0634 218° Southwest  Level Estimated
Sun 11:10:00 AM 28.4792 -82.0826 218° Southwest  Level Estimated
Sun 11:11:00 AM 28.4578 -82.1019 218° Southwest  Level Estimated
Sun 11:12:00 AM 28.4364 -82.1211 218° Southwest  Level Estimated
Sun 11:13:00 AM 28.4150 -82.1403 218° Southwest  Level Estimated
Sun 11:14:00 AM 28.3937 -82.1596 218° Southwest  Level Estimated
Sun 11:15:00 AM 28.3723 -82.1788 218° Southwest  Level Estimated
Sun 11:16:00 AM 28.3509 -82.1980 218° Southwest  Level Estimated
Sun 11:17:00 AM 28.3239 -82.2127 206° Southwest  Level FlightAware Approximate
Sun 11:18:00 AM 28.2969 -82.2275 206° Southwest  Level FlightAware Approximate
Sun 11:19:00 AM 28.2698 -82.2422 206° Southwest  Level FlightAware Approximate
Sun 11:20:00 AM 28.2428 -82.2570 206° Southwest  Level FlightAware Approximate
Sun 11:21:00 AM 28.2158 -82.2717 206° Southwest  Level FlightAware Approximate
Sun 11:22:00 AM 28.1888 -82.2864 206° Southwest  Level FlightAware Approximate
Sun 11:23:00 AM 28.1618 -82.3012 206° Southwest  Level FlightAware Approximate
Sun 11:24:00 AM 28.1417 -82.3263 233° Southwest  Level Estimated
Sun 11:25:00 AM 28.1189 -82.3484 221° Southwest  Level FlightAware Approximate
Sun 11:26:00 AM 28.0991 -82.3739 221° Southwest  Level Estimated
Sun 11:27:00 AM 28.0753 -82.3946 218° Southwest  Level FlightAware Approximate
Sun 11:28:00 AM 28.0564 -82.4209 221° Southwest  Level Estimated
Sun 11:29:00 AM 28.0312 -82.4393 213° Southwest  Level FlightAware Approximate
Sun 11:30:00 AM 28.0145 -82.4675 230° Southwest  Level Estimated
Sun 11:31:00 AM 27.9923 -82.4903 222° Southwest  Level FlightAware Approximate
Sun 11:32:00 AM 27.9667 -82.5167 230° Southwest  Level FlightAware Approximate
Sun 11:33:00 AM 27.9755 -82.5332 230° Southwest  Level Estimated
Sun 11:34:00 AM 27.9755 -82.5332 230° Southwest  Level Estimated
Sun 11:35:00 AM 27.9755 -82.5332 230° Southwest  Level Estimated
Sun 11:36:00 AM 27.9755 -82.5332 230° Southwest  Level Estimated
Sun 11:37:00 AM 27.9755 -82.5332 230° Southwest  Level Estimated
Sun 11:38:00 AM 27.9755 -82.5332 230° Southwest  Level Estimated
Sun 11:39:00 AM 27.9755 -82.5332 230° Southwest  Level Estimated
Sun 11:40:00 AM 27.9755 -82.5332 230° Southwest  Level Estimated
Sun 11:41:00 AM 27.9755 -82.5332 230° Southwest  Level Estimated

Login

Don't have an account? Register now (free) for customized features, flight alerts, and more!